sensor_id;sensor_type;location;lat;lon;timestamp;temperature;humidity
14687;DHT22;7431;49.440;11.084;2023-11-18T00:00:31;4.90;99.90
14687;DHT22;7431;49.440;11.084;2023-11-18T00:02:57;4.90;1.00
14687;DHT22;7431;49.440;11.084;2023-11-18T00:05:23;4.90;1.00
14687;DHT22;7431;49.440;11.084;2023-11-18T00:07:49;5.00;1.00
14687;DHT22;7431;49.440;11.084;2023-11-18T00:10:16;4.90;1.00
14687;DHT22;7431;49.440;11.084;2023-11-18T00:12:42;5.00;1.00
14687;DHT22;7431;49.440;11.084;2023-11-18T00:15:09;5.00;1.00
14687;DHT22;7431;49.440;11.084;2023-11-18T00:17:35;5.00;1.00
14687;DHT22;7431;49.440;11.084;2023-11-18T00:20:01;5.00;99.90
14687;DHT22;7431;49.440;11.084;2023-11-18T00:22:28;5.00;99.90
14687;DHT22;7431;49.440;11.084;2023-11-18T00:24:54;5.10;1.00
14687;DHT22;7431;49.440;11.084;2023-11-18T00:27:20;5.00;1.00
14687;DHT22;7431;49.440;11.084;2023-11-18T00:29:50;5.10;1.00
14687;DHT22;7431;49.440;11.084;2023-11-18T00:32:16;5.00;1.00
14687;DHT22;7431;49.440;11.084;2023-11-18T00:34:42;5.00;1.00
14687;DHT22;7431;49.440;11.084;2023-11-18T00:37:07;5.00;1.00
14687;DHT22;7431;49.440;11.084;2023-11-18T00:39:33;5.00;1.00
14687;DHT22;7431;49.440;11.084;2023-11-18T00:41:59;5.00;99.90
14687;DHT22;7431;49.440;11.084;2023-11-18T00:44:24;6.20;99.90
14687;DHT22;7431;49.440;11.084;2023-11-18T00:46:50;5.00;99.90
14687;DHT22;7431;49.440;11.084;2023-11-18T00:49:15;5.00;99.90
14687;DHT22;7431;49.440;11.084;2023-11-18T00:51:41;4.90;99.90
14687;DHT22;7431;49.440;11.084;2023-11-18T00:54:09;4.80;99.90
14687;DHT22;7431;49.440;11.084;2023-11-18T00:56:35;4.70;1.00
14687;DHT22;7431;49.440;11.084;2023-11-18T00:59:01;4.70;1.00
14687;DHT22;7431;49.440;11.084;2023-11-18T01:01:27;4.70;1.00
14687;DHT22;7431;49.440;11.084;2023-11-18T01:03:53;4.80;1.00
14687;DHT22;7431;49.440;11.084;2023-11-18T01:06:19;4.90;1.00
14687;DHT22;7431;49.440;11.084;2023-11-18T01:08:46;4.90;99.90
14687;DHT22;7431;49.440;11.084;2023-11-18T01:11:16;4.90;99.90
14687;DHT22;7431;49.440;11.084;2023-11-18T01:13:48;5.00;1.00
14687;DHT22;7431;49.440;11.084;2023-11-18T01:16:13;5.90;1.00
14687;DHT22;7431;49.440;11.084;2023-11-18T01:18:41;4.80;1.00
14687;DHT22;7431;49.440;11.084;2023-11-18T01:21:07;4.50;1.00
14687;DHT22;7431;49.440;11.084;2023-11-18T01:23:38;5.30;19.80
14687;DHT22;7431;49.440;11.084;2023-11-18T01:26:10;4.00;99.90
14687;DHT22;7431;49.440;11.084;2023-11-18T01:28:38;5.30;99.90
14687;DHT22;7431;49.440;11.084;2023-11-18T01:31:07;4.20;1.00
14687;DHT22;7431;49.440;11.084;2023-11-18T01:33:38;4.10;1.00
14687;DHT22;7431;49.440;11.084;2023-11-18T01:36:09;4.00;51.20
14687;DHT22;7431;49.440;11.084;2023-11-18T01:38:35;3.80;1.00
14687;DHT22;7431;49.440;11.084;2023-11-18T01:41:03;3.60;99.90
14687;DHT22;7431;49.440;11.084;2023-11-18T01:43:30;3.50;99.90
14687;DHT22;7431;49.440;11.084;2023-11-18T01:45:58;3.50;78.00
14687;DHT22;7431;49.440;11.084;2023-11-18T01:48:28;3.50;1.00
14687;DHT22;7431;49.440;11.084;2023-11-18T01:50:56;3.40;1.00
14687;DHT22;7431;49.440;11.084;2023-11-18T01:53:23;3.50;1.00
14687;DHT22;7431;49.440;11.084;2023-11-18T01:55:49;3.60;99.90
14687;DHT22;7431;49.440;11.084;2023-11-18T01:58:16;3.70;1.00
14687;DHT22;7431;49.440;11.084;2023-11-18T02:00:45;3.80;99.90
14687;DHT22;7431;49.440;11.084;2023-11-18T02:03:12;3.90;1.70
14687;DHT22;7431;49.440;11.084;2023-11-18T02:05:37;3.90;1.00
14687;DHT22;7431;49.440;11.084;2023-11-18T02:08:04;4.70;1.00
14687;DHT22;7431;49.440;11.084;2023-11-18T02:10:33;4.00;99.90
14687;DHT22;7431;49.440;11.084;2023-11-18T02:13:22;4.00;99.90
14687;DHT22;7431;49.440;11.084;2023-11-18T02:15:58;4.00;99.90
14687;DHT22;7431;49.440;11.084;2023-11-18T02:18:25;4.00;99.90
14687;DHT22;7431;49.440;11.084;2023-11-18T02:20:54;4.00;20.00
14687;DHT22;7431;49.440;11.084;2023-11-18T02:23:20;4.00;1.00
14687;DHT22;7431;49.440;11.084;2023-11-18T02:25:48;3.90;1.00
14687;DHT22;7431;49.440;11.084;2023-11-18T02:28:13;3.90;1.00
14687;DHT22;7431;49.440;11.084;2023-11-18T02:30:40;4.00;1.00
14687;DHT22;7431;49.440;11.084;2023-11-18T02:33:18;3.90;1.00
14687;DHT22;7431;49.440;11.084;2023-11-18T02:35:53;3.80;1.00
14687;DHT22;7431;49.440;11.084;2023-11-18T02:38:27;3.80;1.00
14687;DHT22;7431;49.440;11.084;2023-11-18T02:40:56;3.90;1.00
14687;DHT22;7431;49.440;11.084;2023-11-18T02:43:24;3.90;20.10
14687;DHT22;7431;49.440;11.084;2023-11-18T02:45:51;4.00;1.00
14687;DHT22;7431;49.440;11.084;2023-11-18T02:48:17;3.90;1.00
14687;DHT22;7431;49.440;11.084;2023-11-18T02:50:43;4.00;1.00
14687;DHT22;7431;49.440;11.084;2023-11-18T02:53:09;3.90;1.00
14687;DHT22;7431;49.440;11.084;2023-11-18T02:55:35;3.90;99.90
14687;DHT22;7431;49.440;11.084;2023-11-18T02:58:01;3.80;1.00
14687;DHT22;7431;49.440;11.084;2023-11-18T03:00:27;3.70;1.00
14687;DHT22;7431;49.440;11.084;2023-11-18T03:02:54;3.60;99.90
14687;DHT22;7431;49.440;11.084;2023-11-18T03:05:20;3.50;1.00
14687;DHT22;7431;49.440;11.084;2023-11-18T03:07:46;3.50;1.00
14687;DHT22;7431;49.440;11.084;2023-11-18T03:10:19;3.40;1.00
14687;DHT22;7431;49.440;11.084;2023-11-18T03:12:52;3.40;1.00
14687;DHT22;7431;49.440;11.084;2023-11-18T03:15:18;3.20;1.00
14687;DHT22;7431;49.440;11.084;2023-11-18T03:17:45;3.10;1.00
14687;DHT22;7431;49.440;11.084;2023-11-18T03:20:12;2.90;92.40
14687;DHT22;7431;49.440;11.084;2023-11-18T03:22:40;2.80;1.00
14687;DHT22;7431;49.440;11.084;2023-11-18T03:25:06;2.60;1.00
14687;DHT22;7431;49.440;11.084;2023-11-18T03:27:33;2.50;1.00
14687;DHT22;7431;49.440;11.084;2023-11-18T03:29:59;2.40;1.00
14687;DHT22;7431;49.440;11.084;2023-11-18T03:32:24;2.40;15.40
14687;DHT22;7431;49.440;11.084;2023-11-18T03:34:50;2.40;77.90
14687;DHT22;7431;49.440;11.084;2023-11-18T03:37:15;2.30;99.90
14687;DHT22;7431;49.440;11.084;2023-11-18T03:39:41;2.30;99.90
14687;DHT22;7431;49.440;11.084;2023-11-18T03:42:06;2.20;99.90
14687;DHT22;7431;49.440;11.084;2023-11-18T03:44:33;2.10;99.90
14687;DHT22;7431;49.440;11.084;2023-11-18T03:46:59;2.10;99.90
14687;DHT22;7431;49.440;11.084;2023-11-18T03:49:24;2.10;99.90
14687;DHT22;7431;49.440;11.084;2023-11-18T03:51:50;2.10;99.90
14687;DHT22;7431;49.440;11.084;2023-11-18T03:54:16;2.20;99.90
14687;DHT22;7431;49.440;11.084;2023-11-18T03:56:41;2.20;99.90
14687;DHT22;7431;49.440;11.084;2023-11-18T03:59:07;2.30;99.90
14687;DHT22;7431;49.440;11.084;2023-11-18T04:01:32;2.40;99.90
14687;DHT22;7431;49.440;11.084;2023-11-18T04:03:58;2.40;99.90
14687;DHT22;7431;49.440;11.084;2023-11-18T04:06:24;2.60;99.90
14687;DHT22;7431;49.440;11.084;2023-11-18T04:08:50;2.60;99.90
14687;DHT22;7431;49.440;11.084;2023-11-18T04:11:16;2.70;99.90
14687;DHT22;7431;49.440;11.084;2023-11-18T04:13:42;2.80;99.90
14687;DHT22;7431;49.440;11.084;2023-11-18T04:16:14;2.80;99.90
14687;DHT22;7431;49.440;11.084;2023-11-18T04:18:41;2.80;57.90
14687;DHT22;7431;49.440;11.084;2023-11-18T04:21:07;2.80;1.00
14687;DHT22;7431;49.440;11.084;2023-11-18T04:23:37;2.80;1.00
14687;DHT22;7431;49.440;11.084;2023-11-18T04:26:07;2.80;1.00
14687;DHT22;7431;49.440;11.084;2023-11-18T04:28:36;2.70;1.00
14687;DHT22;7431;49.440;11.084;2023-11-18T04:31:03;2.70;1.00
14687;DHT22;7431;49.440;11.084;2023-11-18T04:33:29;2.80;1.00
14687;DHT22;7431;49.440;11.084;2023-11-18T04:35:58;2.70;1.00
14687;DHT22;7431;49.440;11.084;2023-11-18T04:38:24;2.70;1.00
14687;DHT22;7431;49.440;11.084;2023-11-18T04:40:54;2.70;1.00
14687;DHT22;7431;49.440;11.084;2023-11-18T04:43:20;2.70;1.00
14687;DHT22;7431;49.440;11.084;2023-11-18T04:45:46;2.70;1.00
14687;DHT22;7431;49.440;11.084;2023-11-18T04:48:12;2.60;1.00
14687;DHT22;7431;49.440;11.084;2023-11-18T04:50:43;2.60;1.00
14687;DHT22;7431;49.440;11.084;2023-11-18T04:53:09;2.60;1.00
14687;DHT22;7431;49.440;11.084;2023-11-18T04:55:39;2.50;1.00
14687;DHT22;7431;49.440;11.084;2023-11-18T04:58:05;2.50;1.00
14687;DHT22;7431;49.440;11.084;2023-11-18T05:00:38;2.40;1.00
14687;DHT22;7431;49.440;11.084;2023-11-18T05:03:04;2.40;1.00
14687;DHT22;7431;49.440;11.084;2023-11-18T05:05:31;2.20;1.00
14687;DHT22;7431;49.440;11.084;2023-11-18T05:07:57;2.00;1.00
14687;DHT22;7431;49.440;11.084;2023-11-18T05:10:22;1.90;1.00
14687;DHT22;7431;49.440;11.084;2023-11-18T05:12:49;1.90;71.60
14687;DHT22;7431;49.440;11.084;2023-11-18T05:15:21;1.90;99.90
14687;DHT22;7431;49.440;11.084;2023-11-18T05:17:53;1.90;99.90
14687;DHT22;7431;49.440;11.084;2023-11-18T05:20:20;2.00;99.90
14687;DHT22;7431;49.440;11.084;2023-11-18T05:22:46;2.10;99.90
14687;DHT22;7431;49.440;11.084;2023-11-18T05:25:11;2.10;99.90
14687;DHT22;7431;49.440;11.084;2023-11-18T05:27:37;2.10;99.90
14687;DHT22;7431;49.440;11.084;2023-11-18T05:30:06;2.10;99.90
14687;DHT22;7431;49.440;11.084;2023-11-18T05:32:32;2.10;99.90
14687;DHT22;7431;49.440;11.084;2023-11-18T05:34:59;2.20;99.90
14687;DHT22;7431;49.440;11.084;2023-11-18T05:37:24;2.30;99.90
14687;DHT22;7431;49.440;11.084;2023-11-18T05:39:50;2.30;99.90
14687;DHT22;7431;49.440;11.084;2023-11-18T05:42:25;2.40;99.90
14687;DHT22;7431;49.440;11.084;2023-11-18T05:44:51;2.40;99.90
14687;DHT22;7431;49.440;11.084;2023-11-18T05:47:23;2.50;99.90
14687;DHT22;7431;49.440;11.084;2023-11-18T05:49:49;2.50;99.90
14687;DHT22;7431;49.440;11.084;2023-11-18T05:52:14;2.50;99.90
14687;DHT22;7431;49.440;11.084;2023-11-18T05:54:40;2.60;99.90
14687;DHT22;7431;49.440;11.084;2023-11-18T05:57:05;2.60;99.90
14687;DHT22;7431;49.440;11.084;2023-11-18T05:59:31;2.60;99.90
14687;DHT22;7431;49.440;11.084;2023-11-18T06:01:56;2.60;70.30
14687;DHT22;7431;49.440;11.084;2023-11-18T06:04:22;2.60;22.00
14687;DHT22;7431;49.440;11.084;2023-11-18T06:06:48;2.50;68.70
14687;DHT22;7431;49.440;11.084;2023-11-18T06:09:13;2.50;99.90
14687;DHT22;7431;49.440;11.084;2023-11-18T06:11:47;2.40;99.90
14687;DHT22;7431;49.440;11.084;2023-11-18T06:14:12;2.40;99.90
14687;DHT22;7431;49.440;11.084;2023-11-18T06:16:38;2.40;99.90
14687;DHT22;7431;49.440;11.084;2023-11-18T06:19:07;2.50;99.90
14687;DHT22;7431;49.440;11.084;2023-11-18T06:21:33;2.50;99.90
14687;DHT22;7431;49.440;11.084;2023-11-18T06:23:59;2.60;99.90
14687;DHT22;7431;49.440;11.084;2023-11-18T06:26:25;2.60;99.90
14687;DHT22;7431;49.440;11.084;2023-11-18T06:28:53;2.70;99.90
14687;DHT22;7431;49.440;11.084;2023-11-18T06:31:19;2.60;99.90
14687;DHT22;7431;49.440;11.084;2023-11-18T06:33:46;2.70;99.90
14687;DHT22;7431;49.440;11.084;2023-11-18T06:38:42;2.60;99.90
14687;DHT22;7431;49.440;11.084;2023-11-18T06:41:12;3.30;99.90
14687;DHT22;7431;49.440;11.084;2023-11-18T06:43:39;2.50;99.90
14687;DHT22;7431;49.440;11.084;2023-11-18T06:46:28;2.50;99.90
14687;DHT22;7431;49.440;11.084;2023-11-18T06:49:02;2.40;99.90
14687;DHT22;7431;49.440;11.084;2023-11-18T06:51:30;2.40;99.90
14687;DHT22;7431;49.440;11.084;2023-11-18T06:53:57;2.30;99.90
14687;DHT22;7431;49.440;11.084;2023-11-18T06:56:29;2.20;99.90
14687;DHT22;7431;49.440;11.084;2023-11-18T06:58:55;2.20;99.90
14687;DHT22;7431;49.440;11.084;2023-11-18T07:01:21;2.20;99.90
14687;DHT22;7431;49.440;11.084;2023-11-18T07:03:48;2.20;99.90
14687;DHT22;7431;49.440;11.084;2023-11-18T07:06:17;2.20;99.90
14687;DHT22;7431;49.440;11.084;2023-11-18T07:08:52;2.20;99.90
14687;DHT22;7431;49.440;11.084;2023-11-18T07:11:19;2.20;99.90
14687;DHT22;7431;49.440;11.084;2023-11-18T07:13:47;2.30;99.90
14687;DHT22;7431;49.440;11.084;2023-11-18T07:16:13;2.30;99.90
14687;DHT22;7431;49.440;11.084;2023-11-18T07:18:40;2.30;99.90
14687;DHT22;7431;49.440;11.084;2023-11-18T07:21:07;2.30;99.90
14687;DHT22;7431;49.440;11.084;2023-11-18T07:23:34;2.20;99.90
14687;DHT22;7431;49.440;11.084;2023-11-18T07:26:01;2.30;99.90
14687;DHT22;7431;49.440;11.084;2023-11-18T07:28:27;2.40;99.90
14687;DHT22;7431;49.440;11.084;2023-11-18T07:30:53;2.30;99.90
14687;DHT22;7431;49.440;11.084;2023-11-18T07:33:19;2.40;99.90
14687;DHT22;7431;49.440;11.084;2023-11-18T07:35:46;2.50;99.90
14687;DHT22;7431;49.440;11.084;2023-11-18T07:38:12;2.60;99.90
14687;DHT22;7431;49.440;11.084;2023-11-18T07:40:38;2.90;99.90
14687;DHT22;7431;49.440;11.084;2023-11-18T07:43:08;3.10;99.90
14687;DHT22;7431;49.440;11.084;2023-11-18T07:45:37;3.20;6.10
14687;DHT22;7431;49.440;11.084;2023-11-18T07:48:07;3.30;1.00
14687;DHT22;7431;49.440;11.084;2023-11-18T07:50:36;3.30;1.00
14687;DHT22;7431;49.440;11.084;2023-11-18T07:53:02;3.50;1.00
14687;DHT22;7431;49.440;11.084;2023-11-18T07:55:29;3.60;1.00
14687;DHT22;7431;49.440;11.084;2023-11-18T07:57:55;3.50;99.90
14687;DHT22;7431;49.440;11.084;2023-11-18T08:00:21;3.50;1.00
14687;DHT22;7431;49.440;11.084;2023-11-18T08:02:46;3.60;99.90
14687;DHT22;7431;49.440;11.084;2023-11-18T08:05:12;3.80;99.90
14687;DHT22;7431;49.440;11.084;2023-11-18T08:07:40;4.00;73.70
14687;DHT22;7431;49.440;11.084;2023-11-18T08:10:06;4.30;1.00
14687;DHT22;7431;49.440;11.084;2023-11-18T08:12:38;4.80;1.00
14687;DHT22;7431;49.440;11.084;2023-11-18T08:15:04;5.00;99.90
14687;DHT22;7431;49.440;11.084;2023-11-18T08:17:32;5.20;1.00
14687;DHT22;7431;49.440;11.084;2023-11-18T08:19:57;5.20;99.90
14687;DHT22;7431;49.440;11.084;2023-11-18T08:22:23;5.10;99.90
14687;DHT22;7431;49.440;11.084;2023-11-18T08:24:49;5.00;99.90
14687;DHT22;7431;49.440;11.084;2023-11-18T08:27:15;5.00;1.00
14687;DHT22;7431;49.440;11.084;2023-11-18T08:29:41;4.80;1.00
14687;DHT22;7431;49.440;11.084;2023-11-18T08:32:06;4.70;1.00
14687;DHT22;7431;49.440;11.084;2023-11-18T08:34:35;4.70;99.90
14687;DHT22;7431;49.440;11.084;2023-11-18T08:37:03;4.60;1.00
14687;DHT22;7431;49.440;11.084;2023-11-18T08:39:29;4.60;1.00
14687;DHT22;7431;49.440;11.084;2023-11-18T08:41:56;4.70;99.90
14687;DHT22;7431;49.440;11.084;2023-11-18T08:44:22;4.70;1.00
14687;DHT22;7431;49.440;11.084;2023-11-18T08:46:49;4.80;20.90
14687;DHT22;7431;49.440;11.084;2023-11-18T08:49:16;4.90;99.90
14687;DHT22;7431;49.440;11.084;2023-11-18T08:51:49;4.90;99.90
14687;DHT22;7431;49.440;11.084;2023-11-18T08:54:21;4.90;1.00
14687;DHT22;7431;49.440;11.084;2023-11-18T08:56:48;4.90;99.90
14687;DHT22;7431;49.440;11.084;2023-11-18T08:59:19;4.90;99.90
14687;DHT22;7431;49.440;11.084;2023-11-18T09:01:53;5.00;1.00
14687;DHT22;7431;49.440;11.084;2023-11-18T09:04:25;5.00;1.00
14687;DHT22;7431;49.440;11.084;2023-11-18T09:06:51;5.10;1.00
14687;DHT22;7431;49.440;11.084;2023-11-18T09:09:23;5.20;1.00
14687;DHT22;7431;49.440;11.084;2023-11-18T09:11:57;5.30;1.00
14687;DHT22;7431;49.440;11.084;2023-11-18T09:14:26;5.50;1.00
14687;DHT22;7431;49.440;11.084;2023-11-18T09:16:52;5.70;71.60
14687;DHT22;7431;49.440;11.084;2023-11-18T09:19:21;5.90;1.00
14687;DHT22;7431;49.440;11.084;2023-11-18T09:21:47;6.00;1.00
14687;DHT22;7431;49.440;11.084;2023-11-18T09:24:14;6.00;1.00
14687;DHT22;7431;49.440;11.084;2023-11-18T09:26:40;6.20;99.90
14687;DHT22;7431;49.440;11.084;2023-11-18T09:29:06;6.40;1.00
14687;DHT22;7431;49.440;11.084;2023-11-18T09:31:35;6.90;99.90
14687;DHT22;7431;49.440;11.084;2023-11-18T09:34:03;7.30;99.90
14687;DHT22;7431;49.440;11.084;2023-11-18T09:36:32;6.80;1.00
14687;DHT22;7431;49.440;11.084;2023-11-18T09:38:59;6.80;1.00
14687;DHT22;7431;49.440;11.084;2023-11-18T09:41:25;6.80;1.00
14687;DHT22;7431;49.440;11.084;2023-11-18T09:43:52;6.90;1.00
14687;DHT22;7431;49.440;11.084;2023-11-18T09:46:25;6.90;1.00
14687;DHT22;7431;49.440;11.084;2023-11-18T09:48:54;6.90;1.00
14687;DHT22;7431;49.440;11.084;2023-11-18T09:51:32;6.70;1.00
14687;DHT22;7431;49.440;11.084;2023-11-18T09:54:00;6.90;1.00
14687;DHT22;7431;49.440;11.084;2023-11-18T09:56:44;6.90;1.00
14687;DHT22;7431;49.440;11.084;2023-11-18T09:59:18;7.20;1.00
14687;DHT22;7431;49.440;11.084;2023-11-18T10:01:52;7.40;1.00
14687;DHT22;7431;49.440;11.084;2023-11-18T10:04:23;7.60;1.00
14687;DHT22;7431;49.440;11.084;2023-11-18T10:06:53;7.70;99.90
14687;DHT22;7431;49.440;11.084;2023-11-18T10:09:19;7.70;99.90
14687;DHT22;7431;49.440;11.084;2023-11-18T10:11:54;7.60;99.90
14687;DHT22;7431;49.440;11.084;2023-11-18T10:14:26;7.50;1.00
14687;DHT22;7431;49.440;11.084;2023-11-18T10:16:52;7.50;1.00
14687;DHT22;7431;49.440;11.084;2023-11-18T10:19:24;7.50;1.00
14687;DHT22;7431;49.440;11.084;2023-11-18T10:21:51;7.60;1.00
14687;DHT22;7431;49.440;11.084;2023-11-18T10:24:17;7.80;1.00
14687;DHT22;7431;49.440;11.084;2023-11-18T10:26:57;8.10;74.10
14687;DHT22;7431;49.440;11.084;2023-11-18T10:29:24;8.40;1.00
14687;DHT22;7431;49.440;11.084;2023-11-18T10:32:07;8.60;99.90
14687;DHT22;7431;49.440;11.084;2023-11-18T10:34:42;8.80;47.20
14687;DHT22;7431;49.440;11.084;2023-11-18T10:37:09;8.90;1.00
14687;DHT22;7431;49.440;11.084;2023-11-18T10:39:36;9.10;1.00
14687;DHT22;7431;49.440;11.084;2023-11-18T10:42:02;9.00;1.00
14687;DHT22;7431;49.440;11.084;2023-11-18T10:44:28;8.90;1.00
14687;DHT22;7431;49.440;11.084;2023-11-18T10:46:57;8.70;1.00
14687;DHT22;7431;49.440;11.084;2023-11-18T10:49:27;8.50;99.90
14687;DHT22;7431;49.440;11.084;2023-11-18T10:51:53;8.40;99.90
14687;DHT22;7431;49.440;11.084;2023-11-18T10:54:23;8.50;99.90
14687;DHT22;7431;49.440;11.084;2023-11-18T10:56:52;8.70;26.90
14687;DHT22;7431;49.440;11.084;2023-11-18T10:59:27;8.90;1.00
14687;DHT22;7431;49.440;11.084;2023-11-18T11:01:53;9.10;1.00
14687;DHT22;7431;49.440;11.084;2023-11-18T11:04:18;9.50;1.00
14687;DHT22;7431;49.440;11.084;2023-11-18T11:06:48;9.80;1.00
14687;DHT22;7431;49.440;11.084;2023-11-18T11:09:23;10.10;99.90
14687;DHT22;7431;49.440;11.084;2023-11-18T11:12:08;10.10;99.90
14687;DHT22;7431;49.440;11.084;2023-11-18T11:14:46;9.90;99.90
14687;DHT22;7431;49.440;11.084;2023-11-18T11:17:17;9.80;99.90
14687;DHT22;7431;49.440;11.084;2023-11-18T11:19:59;9.70;1.00
14687;DHT22;7431;49.440;11.084;2023-11-18T11:22:51;9.70;1.00
14687;DHT22;7431;49.440;11.084;2023-11-18T11:25:22;9.90;1.00
14687;DHT22;7431;49.440;11.084;2023-11-18T11:27:59;10.10;99.90
14687;DHT22;7431;49.440;11.084;2023-11-18T11:30:42;10.10;99.90
14687;DHT22;7431;49.440;11.084;2023-11-18T11:33:18;10.20;99.90
14687;DHT22;7431;49.440;11.084;2023-11-18T11:35:55;10.30;99.90
14687;DHT22;7431;49.440;11.084;2023-11-18T11:38:25;10.30;99.90
14687;DHT22;7431;49.440;11.084;2023-11-18T11:40:54;10.40;99.90
14687;DHT22;7431;49.440;11.084;2023-11-18T11:43:20;10.40;99.90
14687;DHT22;7431;49.440;11.084;2023-11-18T11:45:54;10.20;99.90
14687;DHT22;7431;49.440;11.084;2023-11-18T11:48:22;10.00;99.90
14687;DHT22;7431;49.440;11.084;2023-11-18T11:51:07;9.80;99.90
14687;DHT22;7431;49.440;11.084;2023-11-18T11:54:12;9.70;99.90
14687;DHT22;7431;49.440;11.084;2023-11-18T11:56:43;9.60;99.90
14687;DHT22;7431;49.440;11.084;2023-11-18T11:59:09;10.00;1.00
14687;DHT22;7431;49.440;11.084;2023-11-18T12:01:37;9.80;99.90
14687;DHT22;7431;49.440;11.084;2023-11-18T12:04:04;9.70;1.00
14687;DHT22;7431;49.440;11.084;2023-11-18T12:06:42;9.70;99.90
14687;DHT22;7431;49.440;11.084;2023-11-18T12:09:10;10.50;99.90
14687;DHT22;7431;49.440;11.084;2023-11-18T12:11:36;9.90;99.90
14687;DHT22;7431;49.440;11.084;2023-11-18T12:14:08;9.90;99.90
14687;DHT22;7431;49.440;11.084;2023-11-18T12:17:06;10.10;99.90
14687;DHT22;7431;49.440;11.084;2023-11-18T12:19:42;10.20;99.90
14687;DHT22;7431;49.440;11.084;2023-11-18T12:22:18;10.30;99.90
14687;DHT22;7431;49.440;11.084;2023-11-18T12:24:46;10.30;99.90
14687;DHT22;7431;49.440;11.084;2023-11-18T12:27:14;10.20;99.90
14687;DHT22;7431;49.440;11.084;2023-11-18T12:29:43;9.90;99.90
14687;DHT22;7431;49.440;11.084;2023-11-18T12:35:20;9.50;99.90
14687;DHT22;7431;49.440;11.084;2023-11-18T12:40:50;9.50;99.90
14687;DHT22;7431;49.440;11.084;2023-11-18T12:43:17;9.60;99.90
14687;DHT22;7431;49.440;11.084;2023-11-18T12:48:20;9.90;99.90
14687;DHT22;7431;49.440;11.084;2023-11-18T12:50:53;9.90;99.90
14687;DHT22;7431;49.440;11.084;2023-11-18T12:53:20;9.90;99.90
14687;DHT22;7431;49.440;11.084;2023-11-18T12:55:49;9.80;99.90
14687;DHT22;7431;49.440;11.084;2023-11-18T12:58:16;9.90;99.90
14687;DHT22;7431;49.440;11.084;2023-11-18T13:00:43;9.90;99.90
14687;DHT22;7431;49.440;11.084;2023-11-18T13:03:10;10.30;99.90
14687;DHT22;7431;49.440;11.084;2023-11-18T13:05:37;9.80;99.90
14687;DHT22;7431;49.440;11.084;2023-11-18T13:08:04;9.80;99.90
14687;DHT22;7431;49.440;11.084;2023-11-18T13:10:29;9.80;99.90
14687;DHT22;7431;49.440;11.084;2023-11-18T13:12:55;9.80;99.90
14687;DHT22;7431;49.440;11.084;2023-11-18T13:15:20;9.80;99.90
14687;DHT22;7431;49.440;11.084;2023-11-18T13:17:59;9.70;99.90
14687;DHT22;7431;49.440;11.084;2023-11-18T13:20:25;9.60;99.90
14687;DHT22;7431;49.440;11.084;2023-11-18T13:22:51;9.50;99.90
14687;DHT22;7431;49.440;11.084;2023-11-18T13:25:18;9.30;99.90
14687;DHT22;7431;49.440;11.084;2023-11-18T13:27:43;9.20;99.90
14687;DHT22;7431;49.440;11.084;2023-11-18T13:30:10;9.10;99.90
14687;DHT22;7431;49.440;11.084;2023-11-18T13:32:41;8.90;99.90
14687;DHT22;7431;49.440;11.084;2023-11-18T13:35:08;8.90;99.90
14687;DHT22;7431;49.440;11.084;2023-11-18T13:37:34;8.90;99.90
14687;DHT22;7431;49.440;11.084;2023-11-18T13:39:59;8.80;99.90
14687;DHT22;7431;49.440;11.084;2023-11-18T13:42:26;8.80;99.90
14687;DHT22;7431;49.440;11.084;2023-11-18T13:44:53;8.70;1.00
14687;DHT22;7431;49.440;11.084;2023-11-18T13:47:26;8.70;1.00
14687;DHT22;7431;49.440;11.084;2023-11-18T13:49:57;8.70;1.00
14687;DHT22;7431;49.440;11.084;2023-11-18T13:52:24;8.80;1.00
14687;DHT22;7431;49.440;11.084;2023-11-18T13:54:51;8.80;1.00
14687;DHT22;7431;49.440;11.084;2023-11-18T13:57:21;8.80;1.00
14687;DHT22;7431;49.440;11.084;2023-11-18T13:59:49;8.70;1.00
14687;DHT22;7431;49.440;11.084;2023-11-18T14:02:15;8.70;1.00
14687;DHT22;7431;49.440;11.084;2023-11-18T14:04:42;8.50;1.00
14687;DHT22;7431;49.440;11.084;2023-11-18T14:07:15;8.30;1.00
14687;DHT22;7431;49.440;11.084;2023-11-18T14:09:43;8.10;1.00
14687;DHT22;7431;49.440;11.084;2023-11-18T14:12:11;8.00;71.10
14687;DHT22;7431;49.440;11.084;2023-11-18T14:14:37;7.80;99.90
14687;DHT22;7431;49.440;11.084;2023-11-18T14:17:04;7.80;99.90
14687;DHT22;7431;49.440;11.084;2023-11-18T14:19:31;7.80;99.90
14687;DHT22;7431;49.440;11.084;2023-11-18T14:21:57;7.70;99.90
14687;DHT22;7431;49.440;11.084;2023-11-18T14:24:23;7.60;1.00
14687;DHT22;7431;49.440;11.084;2023-11-18T14:26:48;7.60;1.00
14687;DHT22;7431;49.440;11.084;2023-11-18T14:29:15;7.50;1.00
14687;DHT22;7431;49.440;11.084;2023-11-18T14:31:41;7.40;1.00
14687;DHT22;7431;49.440;11.084;2023-11-18T14:34:07;7.40;92.70
14687;DHT22;7431;49.440;11.084;2023-11-18T14:36:36;7.30;99.90
14687;DHT22;7431;49.440;11.084;2023-11-18T14:39:02;7.20;1.00
14687;DHT22;7431;49.440;11.084;2023-11-18T14:41:28;7.20;1.00
14687;DHT22;7431;49.440;11.084;2023-11-18T14:43:57;7.10;1.00
14687;DHT22;7431;49.440;11.084;2023-11-18T14:46:23;7.10;1.00
14687;DHT22;7431;49.440;11.084;2023-11-18T14:48:49;7.10;1.00
14687;DHT22;7431;49.440;11.084;2023-11-18T14:51:15;7.10;1.00
14687;DHT22;7431;49.440;11.084;2023-11-18T14:53:41;7.00;99.90
14687;DHT22;7431;49.440;11.084;2023-11-18T14:56:09;7.00;99.90
14687;DHT22;7431;49.440;11.084;2023-11-18T14:58:34;7.00;99.90
14687;DHT22;7431;49.440;11.084;2023-11-18T15:01:03;7.30;1.00
14687;DHT22;7431;49.440;11.084;2023-11-18T15:03:35;7.00;1.00
14687;DHT22;7431;49.440;11.084;2023-11-18T15:06:00;6.90;1.00
14687;DHT22;7431;49.440;11.084;2023-11-18T15:08:26;6.90;1.00
14687;DHT22;7431;49.440;11.084;2023-11-18T15:10:51;6.80;86.20
14687;DHT22;7431;49.440;11.084;2023-11-18T15:13:17;6.80;99.90
14687;DHT22;7431;49.440;11.084;2023-11-18T15:15:46;6.80;1.00
14687;DHT22;7431;49.440;11.084;2023-11-18T15:18:14;6.80;1.00
14687;DHT22;7431;49.440;11.084;2023-11-18T15:20:43;6.80;1.00
14687;DHT22;7431;49.440;11.084;2023-11-18T15:23:09;6.80;1.00
14687;DHT22;7431;49.440;11.084;2023-11-18T15:25:35;7.40;1.00
14687;DHT22;7431;49.440;11.084;2023-11-18T15:28:01;6.80;1.00
14687;DHT22;7431;49.440;11.084;2023-11-18T15:30:29;7.50;1.00
14687;DHT22;7431;49.440;11.084;2023-11-18T15:32:55;6.70;1.00
14687;DHT22;7431;49.440;11.084;2023-11-18T15:35:21;6.70;99.90
14687;DHT22;7431;49.440;11.084;2023-11-18T15:37:47;6.70;99.90
14687;DHT22;7431;49.440;11.084;2023-11-18T15:40:15;6.70;1.00
14687;DHT22;7431;49.440;11.084;2023-11-18T15:42:45;6.70;1.00
14687;DHT22;7431;49.440;11.084;2023-11-18T15:45:18;6.60;1.00
14687;DHT22;7431;49.440;11.084;2023-11-18T15:47:44;6.60;1.00
14687;DHT22;7431;49.440;11.084;2023-11-18T15:50:12;6.60;1.00
14687;DHT22;7431;49.440;11.084;2023-11-18T15:52:44;6.60;90.70
14687;DHT22;7431;49.440;11.084;2023-11-18T15:55:10;6.50;99.90
14687;DHT22;7431;49.440;11.084;2023-11-18T15:57:43;6.60;1.00
14687;DHT22;7431;49.440;11.084;2023-11-18T16:00:10;6.50;1.00
14687;DHT22;7431;49.440;11.084;2023-11-18T16:02:46;6.50;1.00
14687;DHT22;7431;49.440;11.084;2023-11-18T16:05:13;6.50;1.00
14687;DHT22;7431;49.440;11.084;2023-11-18T16:07:42;6.50;1.00
14687;DHT22;7431;49.440;11.084;2023-11-18T16:10:09;6.50;97.70